sensor_id;sensor_type;location;lat;lon;timestamp;temperature;humidity
61765;DHT22;50188;48.114;-1.388;2022-10-15T00:00:50;16.80;99.90
61765;DHT22;50188;48.114;-1.388;2022-10-15T00:03:16;16.90;99.90
61765;DHT22;50188;48.114;-1.388;2022-10-15T00:05:42;16.80;99.90
61765;DHT22;50188;48.114;-1.388;2022-10-15T00:08:09;16.80;99.90
61765;DHT22;50188;48.114;-1.388;2022-10-15T00:10:35;16.80;99.90
61765;DHT22;50188;48.114;-1.388;2022-10-15T00:13:02;16.80;99.90
61765;DHT22;50188;48.114;-1.388;2022-10-15T00:15:28;16.90;99.90
61765;DHT22;50188;48.114;-1.388;2022-10-15T00:17:54;16.90;99.90
61765;DHT22;50188;48.114;-1.388;2022-10-15T00:20:19;16.90;99.90
61765;DHT22;50188;48.114;-1.388;2022-10-15T00:22:45;16.90;99.90
61765;DHT22;50188;48.114;-1.388;2022-10-15T00:25:11;16.90;99.90
61765;DHT22;50188;48.114;-1.388;2022-10-15T00:27:36;16.90;99.90
61765;DHT22;50188;48.114;-1.388;2022-10-15T00:30:03;16.90;99.90
61765;DHT22;50188;48.114;-1.388;2022-10-15T00:32:30;16.90;99.90
61765;DHT22;50188;48.114;-1.388;2022-10-15T00:34:56;16.90;99.90
61765;DHT22;50188;48.114;-1.388;2022-10-15T00:37:22;16.90;99.90
61765;DHT22;50188;48.114;-1.388;2022-10-15T00:39:48;16.90;99.90
61765;DHT22;50188;48.114;-1.388;2022-10-15T00:42:14;17.00;99.90
61765;DHT22;50188;48.114;-1.388;2022-10-15T00:44:54;16.90;99.90
61765;DHT22;50188;48.114;-1.388;2022-10-15T00:47:24;17.00;99.90
61765;DHT22;50188;48.114;-1.388;2022-10-15T00:49:58;16.90;99.90
61765;DHT22;50188;48.114;-1.388;2022-10-15T00:52:31;16.90;99.90
61765;DHT22;50188;48.114;-1.388;2022-10-15T00:55:06;16.90;99.90
61765;DHT22;50188;48.114;-1.388;2022-10-15T00:57:36;16.90;99.90
61765;DHT22;50188;48.114;-1.388;2022-10-15T01:00:09;16.90;99.90
61765;DHT22;50188;48.114;-1.388;2022-10-15T01:02:35;16.90;99.90
61765;DHT22;50188;48.114;-1.388;2022-10-15T01:05:01;16.90;99.90
61765;DHT22;50188;48.114;-1.388;2022-10-15T01:07:27;17.00;99.90
61765;DHT22;50188;48.114;-1.388;2022-10-15T01:09:53;17.00;99.90
61765;DHT22;50188;48.114;-1.388;2022-10-15T01:15:45;16.90;99.90
61765;DHT22;50188;48.114;-1.388;2022-10-15T01:18:23;17.00;99.90
61765;DHT22;50188;48.114;-1.388;2022-10-15T01:21:15;17.00;99.90
61765;DHT22;50188;48.114;-1.388;2022-10-15T01:24:16;17.00;99.90
61765;DHT22;50188;48.114;-1.388;2022-10-15T01:27:19;17.00;99.90
61765;DHT22;50188;48.114;-1.388;2022-10-15T01:30:20;17.00;99.90
61765;DHT22;50188;48.114;-1.388;2022-10-15T01:35:49;17.00;99.90
61765;DHT22;50188;48.114;-1.388;2022-10-15T01:41:21;17.00;99.90
61765;DHT22;50188;48.114;-1.388;2022-10-15T01:43:55;16.90;99.90
61765;DHT22;50188;48.114;-1.388;2022-10-15T01:46:28;17.00;99.90
61765;DHT22;50188;48.114;-1.388;2022-10-15T01:48:57;17.00;99.90
61765;DHT22;50188;48.114;-1.388;2022-10-15T01:51:27;17.00;99.90
61765;DHT22;50188;48.114;-1.388;2022-10-15T01:53:54;17.00;99.90
61765;DHT22;50188;48.114;-1.388;2022-10-15T01:56:24;17.00;99.90
61765;DHT22;50188;48.114;-1.388;2022-10-15T01:58:53;17.00;99.90
61765;DHT22;50188;48.114;-1.388;2022-10-15T02:01:20;17.00;99.90
61765;DHT22;50188;48.114;-1.388;2022-10-15T02:03:49;17.00;99.90
61765;DHT22;50188;48.114;-1.388;2022-10-15T02:06:26;17.00;99.90
61765;DHT22;50188;48.114;-1.388;2022-10-15T02:09:06;17.00;99.90
61765;DHT22;50188;48.114;-1.388;2022-10-15T02:11:59;17.00;99.90
61765;DHT22;50188;48.114;-1.388;2022-10-15T02:14:34;17.00;99.90
61765;DHT22;50188;48.114;-1.388;2022-10-15T02:17:07;16.90;99.90
61765;DHT22;50188;48.114;-1.388;2022-10-15T02:19:59;17.00;99.90
61765;DHT22;50188;48.114;-1.388;2022-10-15T02:22:36;16.90;99.90
61765;DHT22;50188;48.114;-1.388;2022-10-15T02:25:08;17.00;99.90
61765;DHT22;50188;48.114;-1.388;2022-10-15T02:27:38;17.00;99.90
61765;DHT22;50188;48.114;-1.388;2022-10-15T02:30:06;16.90;99.90
61765;DHT22;50188;48.114;-1.388;2022-10-15T02:32:34;17.00;99.90
61765;DHT22;50188;48.114;-1.388;2022-10-15T02:35:02;16.90;99.90
61765;DHT22;50188;48.114;-1.388;2022-10-15T02:37:29;16.90;99.90
61765;DHT22;50188;48.114;-1.388;2022-10-15T02:39:55;16.90;99.90
61765;DHT22;50188;48.114;-1.388;2022-10-15T02:42:21;17.00;99.90
61765;DHT22;50188;48.114;-1.388;2022-10-15T02:44:47;16.90;99.90
61765;DHT22;50188;48.114;-1.388;2022-10-15T02:47:16;16.90;99.90
61765;DHT22;50188;48.114;-1.388;2022-10-15T02:49:41;16.90;99.90
61765;DHT22;50188;48.114;-1.388;2022-10-15T02:52:07;17.00;99.90
61765;DHT22;50188;48.114;-1.388;2022-10-15T02:54:33;16.90;99.90
61765;DHT22;50188;48.114;-1.388;2022-10-15T02:56:59;16.90;99.90
61765;DHT22;50188;48.114;-1.388;2022-10-15T02:59:24;16.90;99.90
61765;DHT22;50188;48.114;-1.388;2022-10-15T03:01:50;16.90;99.90
61765;DHT22;50188;48.114;-1.388;2022-10-15T03:04:15;16.90;99.90
61765;DHT22;50188;48.114;-1.388;2022-10-15T03:06:41;16.90;99.90
61765;DHT22;50188;48.114;-1.388;2022-10-15T03:09:10;16.90;99.90
61765;DHT22;50188;48.114;-1.388;2022-10-15T03:11:37;16.90;99.90
61765;DHT22;50188;48.114;-1.388;2022-10-15T03:14:03;16.90;99.90
61765;DHT22;50188;48.114;-1.388;2022-10-15T03:16:28;16.90;99.90
61765;DHT22;50188;48.114;-1.388;2022-10-15T03:18:54;16.90;99.90
61765;DHT22;50188;48.114;-1.388;2022-10-15T03:21:19;16.90;99.90
61765;DHT22;50188;48.114;-1.388;2022-10-15T03:23:45;16.90;99.90
61765;DHT22;50188;48.114;-1.388;2022-10-15T03:26:10;16.90;99.90
61765;DHT22;50188;48.114;-1.388;2022-10-15T03:28:36;16.90;99.90
61765;DHT22;50188;48.114;-1.388;2022-10-15T03:31:02;16.90;99.90
61765;DHT22;50188;48.114;-1.388;2022-10-15T03:33:27;16.90;99.90
61765;DHT22;50188;48.114;-1.388;2022-10-15T03:35:53;16.80;99.90
61765;DHT22;50188;48.114;-1.388;2022-10-15T03:38:19;16.80;99.90
61765;DHT22;50188;48.114;-1.388;2022-10-15T03:40:45;16.80;99.90
61765;DHT22;50188;48.114;-1.388;2022-10-15T03:43:10;16.80;99.90
61765;DHT22;50188;48.114;-1.388;2022-10-15T03:45:36;16.70;99.90
61765;DHT22;50188;48.114;-1.388;2022-10-15T03:48:01;16.80;99.90
61765;DHT22;50188;48.114;-1.388;2022-10-15T03:50:27;16.70;99.90
61765;DHT22;50188;48.114;-1.388;2022-10-15T03:52:53;16.70;99.90
61765;DHT22;50188;48.114;-1.388;2022-10-15T03:55:18;16.70;99.90
61765;DHT22;50188;48.114;-1.388;2022-10-15T03:57:44;16.70;99.90
61765;DHT22;50188;48.114;-1.388;2022-10-15T04:00:12;16.70;99.90
61765;DHT22;50188;48.114;-1.388;2022-10-15T04:02:38;16.70;99.90
61765;DHT22;50188;48.114;-1.388;2022-10-15T04:05:04;16.70;99.90
61765;DHT22;50188;48.114;-1.388;2022-10-15T04:07:33;16.70;99.90
61765;DHT22;50188;48.114;-1.388;2022-10-15T04:09:58;16.70;99.90
61765;DHT22;50188;48.114;-1.388;2022-10-15T04:12:24;16.70;99.90
61765;DHT22;50188;48.114;-1.388;2022-10-15T04:14:50;16.70;99.90
61765;DHT22;50188;48.114;-1.388;2022-10-15T04:17:15;16.60;99.90
61765;DHT22;50188;48.114;-1.388;2022-10-15T04:19:41;16.60;99.90
61765;DHT22;50188;48.114;-1.388;2022-10-15T04:22:06;16.60;99.90
61765;DHT22;50188;48.114;-1.388;2022-10-15T04:24:32;16.60;99.90
61765;DHT22;50188;48.114;-1.388;2022-10-15T04:26:57;16.60;99.90
61765;DHT22;50188;48.114;-1.388;2022-10-15T04:29:23;16.60;99.90
61765;DHT22;50188;48.114;-1.388;2022-10-15T04:31:49;16.60;99.90
61765;DHT22;50188;48.114;-1.388;2022-10-15T04:34:14;16.60;99.90
61765;DHT22;50188;48.114;-1.388;2022-10-15T04:36:40;16.60;99.90
61765;DHT22;50188;48.114;-1.388;2022-10-15T04:39:06;16.60;99.90
61765;DHT22;50188;48.114;-1.388;2022-10-15T04:41:31;16.50;99.90
61765;DHT22;50188;48.114;-1.388;2022-10-15T04:43:57;16.50;99.90
61765;DHT22;50188;48.114;-1.388;2022-10-15T04:46:23;16.50;99.90
61765;DHT22;50188;48.114;-1.388;2022-10-15T04:48:48;16.60;99.90
61765;DHT22;50188;48.114;-1.388;2022-10-15T04:51:19;16.50;99.90
61765;DHT22;50188;48.114;-1.388;2022-10-15T04:53:45;16.50;99.90
61765;DHT22;50188;48.114;-1.388;2022-10-15T04:56:13;16.50;99.90
61765;DHT22;50188;48.114;-1.388;2022-10-15T04:58:41;16.50;99.90
61765;DHT22;50188;48.114;-1.388;2022-10-15T05:01:09;16.50;99.90
61765;DHT22;50188;48.114;-1.388;2022-10-15T05:03:36;16.40;99.90
61765;DHT22;50188;48.114;-1.388;2022-10-15T05:06:05;16.40;99.90
61765;DHT22;50188;48.114;-1.388;2022-10-15T05:08:32;16.40;99.90
61765;DHT22;50188;48.114;-1.388;2022-10-15T05:11:06;16.40;99.90
61765;DHT22;50188;48.114;-1.388;2022-10-15T05:13:32;16.40;99.90
61765;DHT22;50188;48.114;-1.388;2022-10-15T05:16:18;16.40;99.90
61765;DHT22;50188;48.114;-1.388;2022-10-15T05:18:46;16.40;99.90
61765;DHT22;50188;48.114;-1.388;2022-10-15T05:21:13;16.40;99.90
61765;DHT22;50188;48.114;-1.388;2022-10-15T05:23:39;16.30;99.90
61765;DHT22;50188;48.114;-1.388;2022-10-15T05:26:07;16.40;99.90
61765;DHT22;50188;48.114;-1.388;2022-10-15T05:28:33;16.30;99.90
61765;DHT22;50188;48.114;-1.388;2022-10-15T05:33:34;16.30;99.90
61765;DHT22;50188;48.114;-1.388;2022-10-15T05:36:15;16.20;99.90
61765;DHT22;50188;48.114;-1.388;2022-10-15T05:38:45;16.10;99.90
61765;DHT22;50188;48.114;-1.388;2022-10-15T05:41:11;16.10;99.90
61765;DHT22;50188;48.114;-1.388;2022-10-15T05:43:37;16.10;99.90
61765;DHT22;50188;48.114;-1.388;2022-10-15T05:46:03;16.10;99.90
61765;DHT22;50188;48.114;-1.388;2022-10-15T05:48:28;16.10;99.90
61765;DHT22;50188;48.114;-1.388;2022-10-15T05:51:00;16.20;99.90
61765;DHT22;50188;48.114;-1.388;2022-10-15T05:53:26;16.20;99.90
61765;DHT22;50188;48.114;-1.388;2022-10-15T05:55:52;16.20;99.90
61765;DHT22;50188;48.114;-1.388;2022-10-15T05:58:18;16.20;99.90
61765;DHT22;50188;48.114;-1.388;2022-10-15T06:00:44;16.10;99.90
61765;DHT22;50188;48.114;-1.388;2022-10-15T06:03:12;16.10;99.90
61765;DHT22;50188;48.114;-1.388;2022-10-15T06:05:39;16.10;99.90
61765;DHT22;50188;48.114;-1.388;2022-10-15T06:08:05;16.10;99.90
61765;DHT22;50188;48.114;-1.388;2022-10-15T06:10:34;16.10;99.90
61765;DHT22;50188;48.114;-1.388;2022-10-15T06:13:00;16.10;99.90
61765;DHT22;50188;48.114;-1.388;2022-10-15T06:15:26;16.10;99.90
61765;DHT22;50188;48.114;-1.388;2022-10-15T06:17:52;16.00;99.90
61765;DHT22;50188;48.114;-1.388;2022-10-15T06:20:18;15.90;99.90
61765;DHT22;50188;48.114;-1.388;2022-10-15T06:22:44;15.90;99.90
61765;DHT22;50188;48.114;-1.388;2022-10-15T06:25:09;15.90;99.90
61765;DHT22;50188;48.114;-1.388;2022-10-15T06:27:35;15.90;99.90
61765;DHT22;50188;48.114;-1.388;2022-10-15T06:30:01;15.90;99.90
61765;DHT22;50188;48.114;-1.388;2022-10-15T06:32:27;15.90;99.90
61765;DHT22;50188;48.114;-1.388;2022-10-15T06:34:52;15.90;99.90
61765;DHT22;50188;48.114;-1.388;2022-10-15T06:37:18;15.80;99.90
61765;DHT22;50188;48.114;-1.388;2022-10-15T06:39:43;15.70;99.90
61765;DHT22;50188;48.114;-1.388;2022-10-15T06:42:11;15.70;99.90
61765;DHT22;50188;48.114;-1.388;2022-10-15T06:44:37;15.80;99.90
61765;DHT22;50188;48.114;-1.388;2022-10-15T06:47:03;15.80;99.90
61765;DHT22;50188;48.114;-1.388;2022-10-15T06:49:28;15.80;99.90
61765;DHT22;50188;48.114;-1.388;2022-10-15T06:51:54;15.80;99.90
61765;DHT22;50188;48.114;-1.388;2022-10-15T06:54:20;15.80;99.90
61765;DHT22;50188;48.114;-1.388;2022-10-15T06:56:46;15.80;99.90
61765;DHT22;50188;48.114;-1.388;2022-10-15T06:59:11;15.80;99.90
61765;DHT22;50188;48.114;-1.388;2022-10-15T07:01:37;15.90;99.90
61765;DHT22;50188;48.114;-1.388;2022-10-15T07:04:02;15.90;99.90
61765;DHT22;50188;48.114;-1.388;2022-10-15T07:06:28;16.00;99.90
61765;DHT22;50188;48.114;-1.388;2022-10-15T07:08:54;16.00;99.90
61765;DHT22;50188;48.114;-1.388;2022-10-15T07:11:19;15.90;99.90
61765;DHT22;50188;48.114;-1.388;2022-10-15T07:13:45;16.00;99.90
61765;DHT22;50188;48.114;-1.388;2022-10-15T07:16:11;16.10;99.90
61765;DHT22;50188;48.114;-1.388;2022-10-15T07:18:37;16.20;99.90
61765;DHT22;50188;48.114;-1.388;2022-10-15T07:21:05;16.20;99.90
61765;DHT22;50188;48.114;-1.388;2022-10-15T07:23:31;16.20;99.90
61765;DHT22;50188;48.114;-1.388;2022-10-15T07:25:58;16.20;99.80
61765;DHT22;50188;48.114;-1.388;2022-10-15T07:28:24;16.20;99.80
61765;DHT22;50188;48.114;-1.388;2022-10-15T07:30:49;16.20;99.10
61765;DHT22;50188;48.114;-1.388;2022-10-15T07:33:15;16.20;99.50
61765;DHT22;50188;48.114;-1.388;2022-10-15T07:35:41;16.20;99.10
61765;DHT22;50188;48.114;-1.388;2022-10-15T07:38:06;16.20;98.90
61765;DHT22;50188;48.114;-1.388;2022-10-15T07:40:32;16.20;99.00
61765;DHT22;50188;48.114;-1.388;2022-10-15T07:42:58;16.20;98.90
61765;DHT22;50188;48.114;-1.388;2022-10-15T07:45:25;16.20;99.00
61765;DHT22;50188;48.114;-1.388;2022-10-15T07:47:51;16.20;98.80
61765;DHT22;50188;48.114;-1.388;2022-10-15T07:50:18;16.30;98.90
61765;DHT22;50188;48.114;-1.388;2022-10-15T07:52:44;16.50;98.90
61765;DHT22;50188;48.114;-1.388;2022-10-15T07:55:09;16.50;98.70
61765;DHT22;50188;48.114;-1.388;2022-10-15T07:57:35;16.60;98.40
61765;DHT22;50188;48.114;-1.388;2022-10-15T08:00:01;16.60;98.30
61765;DHT22;50188;48.114;-1.388;2022-10-15T08:02:26;16.60;98.30
61765;DHT22;50188;48.114;-1.388;2022-10-15T08:04:52;16.60;98.10
61765;DHT22;50188;48.114;-1.388;2022-10-15T08:07:18;16.60;97.80
61765;DHT22;50188;48.114;-1.388;2022-10-15T08:09:43;16.70;97.60
61765;DHT22;50188;48.114;-1.388;2022-10-15T08:12:09;16.80;97.40
61765;DHT22;50188;48.114;-1.388;2022-10-15T08:14:35;16.80;97.10
61765;DHT22;50188;48.114;-1.388;2022-10-15T08:17:02;16.90;97.00
61765;DHT22;50188;48.114;-1.388;2022-10-15T08:19:28;17.20;96.80
61765;DHT22;50188;48.114;-1.388;2022-10-15T08:21:53;17.50;96.10
61765;DHT22;50188;48.114;-1.388;2022-10-15T08:24:19;18.00;95.70
61765;DHT22;50188;48.114;-1.388;2022-10-15T08:26:44;18.40;94.90
61765;DHT22;50188;48.114;-1.388;2022-10-15T08:29:11;18.70;94.20
61765;DHT22;50188;48.114;-1.388;2022-10-15T08:31:38;18.80;93.40
61765;DHT22;50188;48.114;-1.388;2022-10-15T08:34:04;19.00;93.00
61765;DHT22;50188;48.114;-1.388;2022-10-15T08:36:30;19.50;92.10
61765;DHT22;50188;48.114;-1.388;2022-10-15T08:38:56;19.80;91.20
61765;DHT22;50188;48.114;-1.388;2022-10-15T08:41:30;20.10;90.90
61765;DHT22;50188;48.114;-1.388;2022-10-15T08:43:57;20.10;89.80
61765;DHT22;50188;48.114;-1.388;2022-10-15T08:46:30;20.20;89.10
61765;DHT22;50188;48.114;-1.388;2022-10-15T08:48:59;20.30;87.90
61765;DHT22;50188;48.114;-1.388;2022-10-15T08:51:41;20.20;87.90
61765;DHT22;50188;48.114;-1.388;2022-10-15T08:54:14;20.30;86.10
61765;DHT22;50188;48.114;-1.388;2022-10-15T08:56:45;20.30;87.10
61765;DHT22;50188;48.114;-1.388;2022-10-15T08:59:32;20.40;86.40
61765;DHT22;50188;48.114;-1.388;2022-10-15T09:02:15;20.30;86.20
61765;DHT22;50188;48.114;-1.388;2022-10-15T09:05:00;20.20;86.50
61765;DHT22;50188;48.114;-1.388;2022-10-15T09:07:42;20.20;85.60
61765;DHT22;50188;48.114;-1.388;2022-10-15T09:10:21;20.30;85.70
61765;DHT22;50188;48.114;-1.388;2022-10-15T09:12:57;20.20;86.40
61765;DHT22;50188;48.114;-1.388;2022-10-15T09:15:25;20.20;86.60
61765;DHT22;50188;48.114;-1.388;2022-10-15T09:17:53;20.10;86.20
61765;DHT22;50188;48.114;-1.388;2022-10-15T09:20:25;20.20;85.80
61765;DHT22;50188;48.114;-1.388;2022-10-15T09:22:54;20.20;86.10
61765;DHT22;50188;48.114;-1.388;2022-10-15T09:25:22;20.10;85.50
61765;DHT22;50188;48.114;-1.388;2022-10-15T09:27:49;20.10;85.80
61765;DHT22;50188;48.114;-1.388;2022-10-15T09:30:41;20.00;85.60
61765;DHT22;50188;48.114;-1.388;2022-10-15T09:33:32;19.90;85.70
61765;DHT22;50188;48.114;-1.388;2022-10-15T09:36:31;19.90;86.40
61765;DHT22;50188;48.114;-1.388;2022-10-15T09:45:03;20.20;85.60
61765;DHT22;50188;48.114;-1.388;2022-10-15T09:47:31;20.20;85.10
61765;DHT22;50188;48.114;-1.388;2022-10-15T09:49:58;20.10;84.80
61765;DHT22;50188;48.114;-1.388;2022-10-15T09:52:47;20.10;85.20
61765;DHT22;50188;48.114;-1.388;2022-10-15T09:58:23;19.60;84.90
61765;DHT22;50188;48.114;-1.388;2022-10-15T10:01:00;19.50;85.80
61765;DHT22;50188;48.114;-1.388;2022-10-15T10:03:28;19.60;86.00
61765;DHT22;50188;48.114;-1.388;2022-10-15T10:06:08;19.60;86.90
61765;DHT22;50188;48.114;-1.388;2022-10-15T10:08:46;19.80;85.70
61765;DHT22;50188;48.114;-1.388;2022-10-15T10:11:13;19.70;86.20
61765;DHT22;50188;48.114;-1.388;2022-10-15T10:13:52;19.80;85.80
61765;DHT22;50188;48.114;-1.388;2022-10-15T10:16:18;19.80;85.40
61765;DHT22;50188;48.114;-1.388;2022-10-15T10:19:02;19.70;84.60
61765;DHT22;50188;48.114;-1.388;2022-10-15T10:21:34;19.80;86.70
61765;DHT22;50188;48.114;-1.388;2022-10-15T10:24:20;19.70;85.70
61765;DHT22;50188;48.114;-1.388;2022-10-15T10:26:46;19.70;87.30
61765;DHT22;50188;48.114;-1.388;2022-10-15T10:29:18;19.70;86.00
61765;DHT22;50188;48.114;-1.388;2022-10-15T10:31:44;19.60;85.40
61765;DHT22;50188;48.114;-1.388;2022-10-15T10:34:28;19.40;85.50
61765;DHT22;50188;48.114;-1.388;2022-10-15T10:36:55;19.10;86.10
61765;DHT22;50188;48.114;-1.388;2022-10-15T10:39:31;19.10;86.80
61765;DHT22;50188;48.114;-1.388;2022-10-15T10:42:00;18.70;87.50
61765;DHT22;50188;48.114;-1.388;2022-10-15T10:44:34;18.50;89.20
61765;DHT22;50188;48.114;-1.388;2022-10-15T10:47:16;18.50;90.20
61765;DHT22;50188;48.114;-1.388;2022-10-15T10:49:53;18.40;90.70
61765;DHT22;50188;48.114;-1.388;2022-10-15T10:52:24;18.30;91.50
61765;DHT22;50188;48.114;-1.388;2022-10-15T10:55:15;18.30;92.00
61765;DHT22;50188;48.114;-1.388;2022-10-15T10:57:49;18.30;92.40
61765;DHT22;50188;48.114;-1.388;2022-10-15T11:00:20;18.20;91.60
61765;DHT22;50188;48.114;-1.388;2022-10-15T11:02:48;18.20;91.80
61765;DHT22;50188;48.114;-1.388;2022-10-15T11:05:18;18.20;92.50
61765;DHT22;50188;48.114;-1.388;2022-10-15T11:08:13;18.20;92.90
61765;DHT22;50188;48.114;-1.388;2022-10-15T11:11:05;18.20;93.20
61765;DHT22;50188;48.114;-1.388;2022-10-15T11:14:00;18.20;93.40
61765;DHT22;50188;48.114;-1.388;2022-10-15T11:16:41;18.10;93.20
61765;DHT22;50188;48.114;-1.388;2022-10-15T11:19:30;18.20;93.50
61765;DHT22;50188;48.114;-1.388;2022-10-15T11:22:29;18.40;93.40
61765;DHT22;50188;48.114;-1.388;2022-10-15T11:25:18;18.50;93.70
61765;DHT22;50188;48.114;-1.388;2022-10-15T11:28:26;18.50;93.30
61765;DHT22;50188;48.114;-1.388;2022-10-15T11:31:03;18.50;92.50
61765;DHT22;50188;48.114;-1.388;2022-10-15T11:34:04;18.50;92.90
61765;DHT22;50188;48.114;-1.388;2022-10-15T11:37:09;18.40;92.30
61765;DHT22;50188;48.114;-1.388;2022-10-15T11:40:01;18.50;92.50
61765;DHT22;50188;48.114;-1.388;2022-10-15T11:42:49;18.40;92.00
61765;DHT22;50188;48.114;-1.388;2022-10-15T11:45:52;18.40;91.70
61765;DHT22;50188;48.114;-1.388;2022-10-15T11:48:41;18.40;92.00
61765;DHT22;50188;48.114;-1.388;2022-10-15T11:51:21;18.40;91.60
61765;DHT22;50188;48.114;-1.388;2022-10-15T11:56:50;18.70;92.10
61765;DHT22;50188;48.114;-1.388;2022-10-15T11:59:42;18.90;92.20
61765;DHT22;50188;48.114;-1.388;2022-10-15T12:02:30;19.00;92.20
61765;DHT22;50188;48.114;-1.388;2022-10-15T12:05:06;19.20;92.50
61765;DHT22;50188;48.114;-1.388;2022-10-15T12:07:48;19.30;92.00
61765;DHT22;50188;48.114;-1.388;2022-10-15T12:10:49;19.40;92.40
61765;DHT22;50188;48.114;-1.388;2022-10-15T12:13:39;19.40;92.10
61765;DHT22;50188;48.114;-1.388;2022-10-15T12:16:33;19.40;91.60
61765;DHT22;50188;48.114;-1.388;2022-10-15T12:19:19;19.50;91.50
61765;DHT22;50188;48.114;-1.388;2022-10-15T12:22:06;19.60;91.50
61765;DHT22;50188;48.114;-1.388;2022-10-15T12:24:50;19.60;91.20
61765;DHT22;50188;48.114;-1.388;2022-10-15T12:27:22;19.50;91.00
61765;DHT22;50188;48.114;-1.388;2022-10-15T12:29:51;19.50;90.90
61765;DHT22;50188;48.114;-1.388;2022-10-15T12:32:22;19.50;91.10
61765;DHT22;50188;48.114;-1.388;2022-10-15T12:34:57;19.60;91.20
61765;DHT22;50188;48.114;-1.388;2022-10-15T12:37:26;19.70;91.10
61765;DHT22;50188;48.114;-1.388;2022-10-15T12:40:02;19.50;90.50
61765;DHT22;50188;48.114;-1.388;2022-10-15T12:42:37;19.40;90.60
61765;DHT22;50188;48.114;-1.388;2022-10-15T12:45:18;19.40;90.70
61765;DHT22;50188;48.114;-1.388;2022-10-15T12:47:47;19.40;91.00
61765;DHT22;50188;48.114;-1.388;2022-10-15T12:50:25;19.40;90.80
61765;DHT22;50188;48.114;-1.388;2022-10-15T12:53:25;19.60;91.10
61765;DHT22;50188;48.114;-1.388;2022-10-15T12:58:37;20.10;90.30
61765;DHT22;50188;48.114;-1.388;2022-10-15T13:01:05;20.20;88.30
61765;DHT22;50188;48.114;-1.388;2022-10-15T13:03:52;20.30;88.40
61765;DHT22;50188;48.114;-1.388;2022-10-15T13:06:29;20.50;88.80
61765;DHT22;50188;48.114;-1.388;2022-10-15T13:09:12;20.60;87.90
61765;DHT22;50188;48.114;-1.388;2022-10-15T13:11:47;20.60;87.40
61765;DHT22;50188;48.114;-1.388;2022-10-15T13:14:27;20.60;85.90
61765;DHT22;50188;48.114;-1.388;2022-10-15T13:16:53;20.60;85.00
61765;DHT22;50188;48.114;-1.388;2022-10-15T13:19:29;20.40;83.80
61765;DHT22;50188;48.114;-1.388;2022-10-15T13:21:58;20.40;82.20
61765;DHT22;50188;48.114;-1.388;2022-10-15T13:24:25;20.30;82.80
61765;DHT22;50188;48.114;-1.388;2022-10-15T13:26:53;20.30;82.80
61765;DHT22;50188;48.114;-1.388;2022-10-15T13:29:22;20.30;81.90
61765;DHT22;50188;48.114;-1.388;2022-10-15T13:31:49;20.30;81.60
61765;DHT22;50188;48.114;-1.388;2022-10-15T13:34:24;20.30;80.20
61765;DHT22;50188;48.114;-1.388;2022-10-15T13:36:52;20.30;80.00
61765;DHT22;50188;48.114;-1.388;2022-10-15T13:39:32;20.30;79.70
61765;DHT22;50188;48.114;-1.388;2022-10-15T13:42:14;20.20;79.80
61765;DHT22;50188;48.114;-1.388;2022-10-15T13:44:41;20.10;79.30
61765;DHT22;50188;48.114;-1.388;2022-10-15T13:47:28;20.00;80.70
61765;DHT22;50188;48.114;-1.388;2022-10-15T13:50:24;19.80;77.00
61765;DHT22;50188;48.114;-1.388;2022-10-15T13:52:59;19.80;77.00
61765;DHT22;50188;48.114;-1.388;2022-10-15T13:55:27;19.90;78.20
61765;DHT22;50188;48.114;-1.388;2022-10-15T13:57:58;19.90;76.90
61765;DHT22;50188;48.114;-1.388;2022-10-15T14:00:34;19.80;75.90
61765;DHT22;50188;48.114;-1.388;2022-10-15T14:03:15;19.80;76.40
61765;DHT22;50188;48.114;-1.388;2022-10-15T14:05:45;19.80;75.70
61765;DHT22;50188;48.114;-1.388;2022-10-15T14:08:23;19.90;75.80
61765;DHT22;50188;48.114;-1.388;2022-10-15T14:10:53;20.00;76.30
61765;DHT22;50188;48.114;-1.388;2022-10-15T14:13:19;20.00;76.10
61765;DHT22;50188;48.114;-1.388;2022-10-15T14:15:52;19.90;76.90
61765;DHT22;50188;48.114;-1.388;2022-10-15T14:18:36;19.90;76.60
61765;DHT22;50188;48.114;-1.388;2022-10-15T14:21:02;19.80;75.00
61765;DHT22;50188;48.114;-1.388;2022-10-15T14:23:34;19.80;75.70
61765;DHT22;50188;48.114;-1.388;2022-10-15T14:26:01;19.70;75.40
61765;DHT22;50188;48.114;-1.388;2022-10-15T14:28:29;19.70;75.00
61765;DHT22;50188;48.114;-1.388;2022-10-15T14:30:56;19.60;73.50
61765;DHT22;50188;48.114;-1.388;2022-10-15T14:33:41;19.50;71.20
61765;DHT22;50188;48.114;-1.388;2022-10-15T14:36:21;19.40;71.50
61765;DHT22;50188;48.114;-1.388;2022-10-15T14:38:47;19.40;72.40
61765;DHT22;50188;48.114;-1.388;2022-10-15T14:41:28;19.40;73.20
61765;DHT22;50188;48.114;-1.388;2022-10-15T14:44:16;19.40;74.00
61765;DHT22;50188;48.114;-1.388;2022-10-15T14:46:48;19.40;75.20
61765;DHT22;50188;48.114;-1.388;2022-10-15T14:49:18;19.40;75.40
61765;DHT22;50188;48.114;-1.388;2022-10-15T14:51:45;19.30;75.70
61765;DHT22;50188;48.114;-1.388;2022-10-15T14:54:20;19.30;76.20
61765;DHT22;50188;48.114;-1.388;2022-10-15T14:56:48;19.30;75.80
61765;DHT22;50188;48.114;-1.388;2022-10-15T14:59:17;19.20;76.20
61765;DHT22;50188;48.114;-1.388;2022-10-15T15:01:56;19.20;76.20
61765;DHT22;50188;48.114;-1.388;2022-10-15T15:04:37;19.10;76.40
61765;DHT22;50188;48.114;-1.388;2022-10-15T15:07:11;19.10;77.20
61765;DHT22;50188;48.114;-1.388;2022-10-15T15:09:37;19.10;78.00
61765;DHT22;50188;48.114;-1.388;2022-10-15T15:12:04;19.10;78.40
61765;DHT22;50188;48.114;-1.388;2022-10-15T15:14:30;19.00;78.70
61765;DHT22;50188;48.114;-1.388;2022-10-15T15:16:57;19.00;79.20
61765;DHT22;50188;48.114;-1.388;2022-10-15T15:19:22;18.90;79.60
61765;DHT22;50188;48.114;-1.388;2022-10-15T15:21:48;18.90;79.90
61765;DHT22;50188;48.114;-1.388;2022-10-15T15:24:13;18.90;80.30
61765;DHT22;50188;48.114;-1.388;2022-10-15T15:26:39;18.90;80.70
61765;DHT22;50188;48.114;-1.388;2022-10-15T15:29:11;18.90;80.40
61765;DHT22;50188;48.114;-1.388;2022-10-15T15:31:37;18.90;80.80
61765;DHT22;50188;48.114;-1.388;2022-10-15T15:34:03;18.80;80.70
61765;DHT22;50188;48.114;-1.388;2022-10-15T15:36:28;18.70;80.60
61765;DHT22;50188;48.114;-1.388;2022-10-15T15:38:54;18.70;80.30
61765;DHT22;50188;48.114;-1.388;2022-10-15T15:41:23;18.60;80.70
61765;DHT22;50188;48.114;-1.388;2022-10-15T15:43:50;18.60;80.90
61765;DHT22;50188;48.114;-1.388;2022-10-15T15:46:17;18.60;81.10
61765;DHT22;50188;48.114;-1.388;2022-10-15T15:48:43;18.50;81.30
61765;DHT22;50188;48.114;-1.388;2022-10-15T15:51:26;18.50;81.70
61765;DHT22;50188;48.114;-1.388;2022-10-15T15:53:53;18.40;81.40
61765;DHT22;50188;48.114;-1.388;2022-10-15T15:56:19;18.40;82.20
61765;DHT22;50188;48.114;-1.388;2022-10-15T15:58:45;18.30;82.30
61765;DHT22;50188;48.114;-1.388;2022-10-15T16:01:11;18.30;82.70
61765;DHT22;50188;48.114;-1.388;2022-10-15T16:03:36;18.30;82.70
61765;DHT22;50188;48.114;-1.388;2022-10-15T16:06:04;18.30;83.20
61765;DHT22;50188;48.114;-1.388;2022-10-15T16:08:30;18.20;83.50